Time;durP1;ratioP1;P1;durP2;ratioP2;P2;SDS_P1;SDS_P2;PMS_P1;PMS_P2;Temp;Humidity;BMP_temperature;BMP_pressure;BME280_temperature;BME280_humidity;BME280_pressure;Samples;Min_cycle;Max_cycle;Signal;HPM_P1;HPM_P2
2023/10/19 00:01:25;;;;;;;22.58;14.13;;;;;;;13.56;68.08;99894.78;5050739;28;20063;-45
2023/10/19 00:03:50;;;;;;;21.15;14.27;;;;;;;13.51;68.35;99899.94;5050709;28;20040;-42
2023/10/19 00:06:18;;;;;;;18.60;13.27;;;;;;;13.49;68.09;99891.34;5050632;28;20013;-44
2023/10/19 00:08:43;;;;;;;22.00;14.25;;;;;;;13.39;68.66;99897.16;5050507;28;20448;-44
2023/10/19 00:11:11;;;;;;;19.05;13.18;;;;;;;13.36;68.89;99888.78;5050834;28;20028;-41
2023/10/19 00:13:38;;;;;;;20.00;13.25;;;;;;;13.22;69.49;99880.81;5050688;28;20052;-40
2023/10/19 00:16:16;;;;;;;17.85;12.75;;;;;;;13.44;68.17;99880.47;5050448;28;20060;-44
2023/10/19 00:18:43;;;;;;;18.33;13.00;;;;;;;13.47;67.82;99878.19;5050807;28;20102;-41
2023/10/19 00:21:19;;;;;;;17.27;13.18;;;;;;;13.41;67.86;99868.38;5050120;28;20029;-45
2023/10/19 00:23:49;;;;;;;17.20;12.77;;;;;;;13.38;67.90;99870.66;5050440;28;20117;-47
2023/10/19 00:26:19;;;;;;;17.70;12.77;;;;;;;13.38;68.01;99870.66;5050460;28;20024;-43
2023/10/19 00:28:46;;;;;;;22.95;12.77;;;;;;;13.47;67.53;99862.13;5050447;28;20021;-42
2023/10/19 00:31:13;;;;;;;19.30;13.68;;;;;;;13.42;67.18;99862.00;5049968;28;20040;-46
2023/10/19 00:33:39;;;;;;;17.88;13.00;;;;;;;13.39;67.10;99849.06;5049055;28;20025;-43
2023/10/19 00:36:08;;;;;;;19.42;13.13;;;;;;;13.39;66.83;99856.28;5050151;28;20021;-42
2023/10/19 00:43:43;;;;;;;18.90;13.25;;;;;;;13.22;67.02;99840.75;5050443;28;20032;-45
2023/10/19 00:48:49;;;;;;;19.73;13.52;;;;;;;12.98;67.60;99849.56;5054459;28;20030;-42
2023/10/19 00:54:13;;;;;;;20.48;14.73;;;;;;;12.94;67.90;99835.81;5053921;28;20467;-44
2023/10/19 00:56:48;;;;;;;20.08;14.18;;;;;;;12.94;68.09;99838.47;5053688;28;20426;-44
2023/10/19 01:02:18;;;;;;;18.83;13.77;;;;;;;12.71;69.00;99834.53;5043286;28;20045;-43
2023/10/19 01:05:04;;;;;;;18.83;13.82;;;;;;;12.59;69.77;99835.44;5053739;28;20527;-43
2023/10/19 01:07:31;;;;;;;22.10;14.75;;;;;;;12.69;69.10;99833.91;5053611;28;20028;-44
2023/10/19 01:10:05;;;;;;;18.92;13.32;;;;;;;12.61;68.84;99830.72;5053795;28;20071;-44
2023/10/19 01:15:13;;;;;;;18.15;13.30;;;;;;;12.30;70.05;99818.97;5053263;28;20029;-45
2023/10/19 01:17:40;;;;;;;17.45;12.60;;;;;;;12.28;70.00;99823.66;5053731;28;20381;-45
2023/10/19 01:20:17;;;;;;;20.40;14.23;;;;;;;12.08;71.59;99816.56;5053012;28;20123;-42
2023/10/19 01:22:53;;;;;;;20.00;13.55;;;;;;;12.33;71.22;99815.84;5053675;28;20116;-46
2023/10/19 01:25:34;;;;;;;21.05;13.52;;;;;;;12.35;70.52;99812.97;5053244;28;20028;-43
2023/10/19 01:28:07;;;;;;;19.38;12.88;;;;;;;12.38;70.46;99813.38;5052251;28;20064;-45
2023/10/19 01:30:33;;;;;;;19.00;13.48;;;;;;;12.52;70.09;99803.44;5053551;28;20095;-43
2023/10/19 01:32:59;;;;;;;19.80;13.13;;;;;;;12.74;69.43;99814.59;5051135;28;20021;-42
2023/10/19 01:35:24;;;;;;;22.75;13.48;;;;;;;12.86;68.89;99802.19;5053182;28;20399;-44
2023/10/19 01:37:49;;;;;;;19.50;13.30;;;;;;;12.89;68.42;99807.09;5053208;28;20045;-43
2023/10/19 01:40:20;;;;;;;17.33;13.13;;;;;;;12.82;68.38;99803.66;5052986;28;20633;-43
2023/10/19 01:42:46;;;;;;;17.80;13.30;;;;;;;12.86;68.85;99809.38;5052963;28;20119;-45
2023/10/19 01:45:12;;;;;;;18.60;13.15;;;;;;;12.93;68.37;99814.66;5052936;28;20108;-45
2023/10/19 01:47:38;;;;;;;18.58;13.05;;;;;;;12.94;67.96;99805.63;5053038;28;20025;-44
2023/10/19 01:50:05;;;;;;;19.17;13.65;;;;;;;12.93;68.14;99812.00;5052916;28;20469;-44
2023/10/19 01:52:31;;;;;;;18.63;13.73;;;;;;;12.80;68.16;99810.25;5052729;28;20060;-46
2023/10/19 01:55:03;;;;;;;17.98;13.38;;;;;;;12.80;68.39;99807.59;5052321;28;20067;-42
2023/10/19 01:57:28;;;;;;;19.00;13.77;;;;;;;12.65;68.84;99818.56;5052067;28;20033;-43
2023/10/19 01:59:53;;;;;;;20.33;13.43;;;;;;;12.40;69.68;99818.50;5052001;28;20032;-43
2023/10/19 02:02:21;;;;;;;20.90;14.15;;;;;;;12.52;69.45;99822.13;5052479;28;20445;-43
2023/10/19 02:04:49;;;;;;;20.70;13.95;;;;;;;12.31;69.89;99824.06;5052673;28;20136;-42
2023/10/19 02:07:17;;;;;;;17.77;13.35;;;;;;;12.28;70.22;99818.34;5052062;28;20547;-43
2023/10/19 02:09:43;;;;;;;19.45;13.50;;;;;;;12.24;70.54;99825.97;5052818;28;20082;-43
2023/10/19 02:12:08;;;;;;;21.75;14.25;;;;;;;12.21;70.30;99814.91;5052497;28;20021;-44
2023/10/19 02:14:34;;;;;;;19.33;13.80;;;;;;;12.18;70.58;99813.47;5052659;28;20104;-47
2023/10/19 02:17:02;;;;;;;21.50;13.63;;;;;;;12.19;70.21;99814.28;5052201;28;20025;-45
2023/10/19 02:19:28;;;;;;;18.48;13.10;;;;;;;12.23;70.91;99813.66;5052550;28;20104;-43
2023/10/19 02:21:59;;;;;;;18.98;13.75;;;;;;;12.34;70.57;99812.16;5052300;28;20093;-43
2023/10/19 02:24:25;;;;;;;19.92;14.30;;;;;;;12.42;70.12;99814.59;5052439;28;20078;-43
2023/10/19 02:26:53;;;;;;;20.02;13.73;;;;;;;12.60;69.75;99813.84;5052222;28;20537;-44
2023/10/19 02:29:19;;;;;;;18.95;13.50;;;;;;;12.58;70.44;99813.25;5052029;28;20025;-47
2023/10/19 02:31:44;;;;;;;19.40;13.48;;;;;;;12.72;70.32;99822.00;5051940;28;20107;-43
2023/10/19 02:34:14;;;;;;;17.67;12.77;;;;;;;12.76;70.06;99825.06;5052134;28;20120;-43
2023/10/19 02:36:41;;;;;;;19.92;13.57;;;;;;;12.68;69.66;99824.28;5051808;28;20178;-45
2023/10/19 02:39:09;;;;;;;24.30;15.82;;;;;;;12.67;70.69;99827.16;5052086;28;20028;-42
2023/10/19 02:41:46;;;;;;;21.33;13.75;;;;;;;12.71;68.80;99826.50;5052003;28;20036;-45
2023/10/19 02:46:47;;;;;;;17.23;12.23;;;;;;;12.56;68.87;99833.19;5051608;28;20025;-46
2023/10/19 02:49:18;;;;;;;19.77;13.48;;;;;;;12.58;68.75;99837.28;5051572;28;20025;-44
2023/10/19 02:51:44;;;;;;;19.85;13.27;;;;;;;12.64;68.71;99835.59;5051774;28;20111;-43
2023/10/19 02:54:22;;;;;;;17.88;13.18;;;;;;;12.72;68.87;99832.69;5051777;28;20028;-44
2023/10/19 02:56:53;;;;;;;20.23;12.98;;;;;;;12.70;68.90;99832.09;5051595;28;20017;-42
2023/10/19 02:59:23;;;;;;;20.02;13.30;;;;;;;12.48;69.81;99827.06;5051702;28;20044;-45
2023/10/19 03:01:49;;;;;;;;;;;;;;;12.75;69.24;99829.56;5052040;28;20723;-41
2023/10/19 03:04:15;;;;;;;21.48;13.15;;;;;;;12.62;69.24;99829.66;5051525;28;19915;-47
2023/10/19 03:06:41;;;;;;;18.00;12.93;;;;;;;12.54;69.66;99832.59;5051848;28;20017;-43
2023/10/19 03:09:15;;;;;;;18.98;12.93;;;;;;;12.49;69.69;99799.34;5051240;28;20483;-43
2023/10/19 03:11:42;;;;;;;20.25;13.70;;;;;;;12.59;70.37;99835.44;5051464;28;20416;-46
2023/10/19 03:14:08;;;;;;;21.42;13.73;;;;;;;12.28;71.80;99834.34;5051325;28;20459;-46
2023/10/19 03:16:36;;;;;;;22.55;16.15;;;;;;;12.25;72.65;99840.13;5050763;28;20454;-43
2023/10/19 03:19:01;;;;;;;20.50;13.88;;;;;;;12.50;71.55;99845.53;5051123;28;20112;-43
2023/10/19 03:21:27;;;;;;;21.73;13.82;;;;;;;12.68;71.02;99842.97;5051340;28;20584;-41
2023/10/19 03:23:56;;;;;;;20.88;13.57;;;;;;;12.75;71.32;99842.13;5051257;28;20508;-43
2023/10/19 03:26:27;;;;;;;21.50;14.13;;;;;;;12.88;71.61;99839.34;5050919;28;20082;-42
2023/10/19 03:28:55;;;;;;;19.48;12.60;;;;;;;12.95;70.72;99833.97;5051124;28;20067;-41
2023/10/19 03:31:23;;;;;;;16.27;11.75;;;;;;;12.93;70.59;99844.88;5050746;28;20028;-44
2023/10/19 03:33:53;;;;;;;28.15;15.13;;;;;;;13.05;69.90;99845.00;5050574;28;20056;-42
2023/10/19 03:36:19;;;;;;;28.13;19.80;;;;;;;13.16;69.54;99836.28;5050306;28;20353;-44
2023/10/19 03:38:45;;;;;;;17.42;11.95;;;;;;;13.17;69.34;99834.41;5050198;28;20052;-46
2023/10/19 03:41:11;;;;;;;15.18;11.15;;;;;;;13.20;68.74;99832.13;5050435;28;20104;-45
2023/10/19 03:43:40;;;;;;;17.30;11.07;;;;;;;13.16;68.70;99830.94;5050243;28;20099;-43
2023/10/19 03:46:18;;;;;;;17.85;10.85;;;;;;;13.25;68.08;99828.78;5050263;28;20029;-42
2023/10/19 03:48:46;;;;;;;16.40;10.45;;;;;;;12.93;69.24;99830.69;5050400;28;20055;-43
2023/10/19 03:51:13;;;;;;;16.15;10.65;;;;;;;12.93;69.57;99831.53;5050209;28;20491;-40
2023/10/19 03:53:43;;;;;;;18.58;11.32;;;;;;;12.79;69.97;99824.63;5049709;28;20041;-46
2023/10/19 03:56:10;;;;;;;;;;;;;;;12.97;69.78;99822.03;5050638;28;20033;-43
2023/10/19 03:58:38;;;;;;;13.27;10.35;;;;;;;12.82;69.77;99818.88;5049782;28;19919;-44
2023/10/19 04:01:05;;;;;;;15.32;10.20;;;;;;;12.90;70.07;99819.41;5050168;28;20065;-41
2023/10/19 04:03:30;;;;;;;14.73;10.30;;;;;;;13.12;68.84;99808.38;5050460;28;20021;-43
2023/10/19 04:06:00;;;;;;;14.23;10.07;;;;;;;13.27;67.95;99811.50;5050624;28;20090;-43
2023/10/19 04:08:26;;;;;;;13.82;9.88;;;;;;;13.28;68.04;99813.13;5050219;28;20633;-43
2023/10/19 04:11:11;;;;;;;14.07;10.10;;;;;;;13.27;67.77;99810.72;5050170;28;20091;-44
2023/10/19 04:13:38;;;;;;;11.93;9.13;;;;;;;13.29;67.86;99814.78;5050799;28;20115;-45
2023/10/19 04:16:10;;;;;;;13.82;10.10;;;;;;;13.35;67.49;99815.78;5050533;28;20037;-43
2023/10/19 04:18:43;;;;;;;13.82;9.88;;;;;;;13.36;67.41;99819.28;5049559;28;20037;-42
2023/10/19 04:21:08;;;;;;;12.85;10.00;;;;;;;13.37;71.84;99816.38;5048183;28;20037;-43
2023/10/19 04:23:34;;;;;;;13.07;10.35;;;;;;;13.35;68.20;99820.31;5054313;28;20044;-42
2023/10/19 04:26:05;;;;;;;15.40;10.63;;;;;;;13.28;68.15;99820.34;5054347;28;20017;-43
2023/10/19 04:28:33;;;;;;;18.95;9.90;;;;;;;12.90;68.97;99821.25;5054284;28;20029;-43
2023/10/19 04:31:06;;;;;;;12.63;10.05;;;;;;;12.95;68.30;99813.44;5053509;28;20029;-42
2023/10/19 04:33:33;;;;;;;16.05;10.45;;;;;;;12.60;69.26;99815.72;5053973;28;20028;-45
2023/10/19 04:36:00;;;;;;;13.00;10.30;;;;;;;12.76;69.85;99815.19;5054872;28;20124;-48
2023/10/19 04:38:27;;;;;;;15.40;11.23;;;;;;;12.94;69.13;99816.31;5054790;28;20045;-44
2023/10/19 04:40:52;;;;;;;13.73;10.50;;;;;;;12.94;69.52;99821.66;5055015;28;20037;-43
2023/10/19 04:43:17;;;;;;;14.77;10.82;;;;;;;12.94;69.54;99819.78;5055375;28;20036;-45
2023/10/19 04:45:44;;;;;;;14.70;11.10;;;;;;;13.17;67.89;99819.19;5055231;28;20021;-43
2023/10/19 04:48:10;;;;;;;17.77;11.32;;;;;;;12.93;68.14;99817.31;5054651;28;20052;-43
2023/10/19 04:50:36;;;;;;;17.85;11.55;;;;;;;12.72;68.15;99819.34;5051658;28;20166;-42
2023/10/19 04:53:02;;;;;;;15.93;11.00;;;;;;;12.54;69.11;99822.72;5047209;28;20401;-43
2023/10/19 04:55:29;;;;;;;13.70;11.25;;;;;;;12.46;68.99;99813.13;5042802;28;20107;-42
2023/10/19 04:57:56;;;;;;;17.17;11.77;;;;;;;12.50;69.11;99821.53;5054226;28;20099;-44
2023/10/19 05:00:24;;;;;;;16.88;11.10;;;;;;;12.36;69.10;99828.78;5051688;28;20481;-42
2023/10/19 05:02:51;;;;;;;20.80;11.20;;;;;;;12.41;69.44;99833.47;5054277;28;20061;-42
2023/10/19 05:05:17;;;;;;;14.02;11.02;;;;;;;12.42;69.75;99825.25;5053983;28;20025;-42
2023/10/19 05:07:43;;;;;;;17.35;10.55;;;;;;;11.67;72.68;99823.06;5054192;28;20048;-42
2023/10/19 05:10:08;;;;;;;14.25;10.27;;;;;;;12.11;71.08;99829.50;5054089;28;20021;-43
2023/10/19 05:12:34;;;;;;;13.98;10.57;;;;;;;12.07;70.59;99833.63;5054091;28;20053;-43
2023/10/19 05:14:59;;;;;;;13.85;10.10;;;;;;;12.30;69.90;99845.66;5047461;28;20087;-45
2023/10/19 05:17:24;;;;;;;16.80;10.43;;;;;;;12.05;70.23;99834.84;5046452;28;20023;-45
2023/10/19 05:19:50;;;;;;;13.30;10.10;;;;;;;12.43;69.24;99837.59;5054149;28;20025;-42
2023/10/19 05:22:16;;;;;;;16.85;10.68;;;;;;;12.66;71.16;99830.84;5046234;28;20056;-43
2023/10/19 05:24:42;;;;;;;13.88;10.02;;;;;;;12.99;67.85;99835.19;5049435;28;20021;-44
2023/10/19 05:27:09;;;;;;;14.38;10.07;;;;;;;13.30;67.10;99845.84;5046038;28;20063;-42
2023/10/19 05:29:36;;;;;;;12.68;9.07;;;;;;;13.28;66.89;99818.47;5048892;28;20060;-42
2023/10/19 05:32:03;;;;;;;12.50;9.18;;;;;;;13.66;66.08;99843.47;5047279;28;20029;-44
2023/10/19 05:34:34;;;;;;;13.85;9.57;;;;;;;14.03;65.13;99836.28;5050773;28;20056;-44
2023/10/19 05:37:02;;;;;;;14.48;8.98;;;;;;;14.04;64.46;99834.41;5042917;28;20041;-40
2023/10/19 05:39:28;;;;;;;17.98;9.50;;;;;;;14.18;63.78;99840.41;5045650;28;21021;-44
2023/10/19 05:42:00;;;;;;;13.05;9.43;;;;;;;14.57;62.17;99839.13;5052217;28;20488;-44
2023/10/19 05:44:30;;;;;;;14.75;9.57;;;;;;;14.67;62.38;99838.56;5049111;28;20085;-43
2023/10/19 05:46:55;;;;;;;;;;;;;;;15.07;61.05;99840.66;5050375;28;20029;-42
2023/10/19 05:49:20;;;;;;;13.82;8.43;;;;;;;14.97;61.49;99843.09;5037221;28;19916;-42
2023/10/19 05:51:46;;;;;;;14.10;8.85;;;;;;;15.05;61.03;99837.38;5040256;28;20462;-41
2023/10/19 05:54:12;;;;;;;14.07;9.18;;;;;;;15.09;60.81;99830.50;5052668;28;20488;-42
2023/10/19 05:56:37;;;;;;;15.88;9.90;;;;;;;15.15;60.52;99839.50;5052529;28;20025;-44
2023/10/19 05:59:04;;;;;;;13.13;8.88;;;;;;;15.51;60.09;99840.34;5052834;28;20040;-41
2023/10/19 06:01:30;;;;;;;15.88;8.52;;;;;;;15.67;59.38;99836.13;5052645;28;20568;-46
2023/10/19 06:03:56;;;;;;;13.40;8.57;;;;;;;16.09;57.38;99839.47;5052532;28;20032;-44
2023/10/19 06:06:22;;;;;;;13.77;8.65;;;;;;;16.53;55.48;99837.13;5051553;28;20021;-44
2023/10/19 06:08:47;;;;;;;12.70;8.45;;;;;;;16.48;55.42;99839.69;5051967;28;20039;-44
2023/10/19 06:11:13;;;;;;;14.55;8.60;;;;;;;16.89;54.91;99837.78;5051370;28;20037;-44
2023/10/19 06:13:38;;;;;;;13.35;8.30;;;;;;;17.08;54.61;99843.75;5050383;28;20025;-45
2023/10/19 06:16:04;;;;;;;11.70;8.02;;;;;;;17.37;53.41;99847.16;5049400;28;20032;-45
2023/10/19 06:18:29;;;;;;;10.80;8.02;;;;;;;17.41;54.05;99843.97;5049119;28;20016;-42
2023/10/19 06:20:55;;;;;;;13.95;8.32;;;;;;;18.02;51.76;99841.34;5050354;28;20028;-43
2023/10/19 06:23:21;;;;;;;15.23;8.40;;;;;;;17.84;50.61;99837.03;5050939;28;20029;-44
2023/10/19 06:25:47;;;;;;;16.00;9.32;;;;;;;18.07;50.41;99838.75;5050268;28;20473;-44
2023/10/19 06:28:12;;;;;;;18.30;9.48;;;;;;;18.29;50.68;99838.72;5050548;28;20640;-44
2023/10/19 06:30:38;;;;;;;13.70;8.27;;;;;;;18.69;49.68;99846.41;5050865;28;20029;-43
2023/10/19 06:33:03;;;;;;;16.42;7.85;;;;;;;18.94;48.88;99853.13;5052515;28;20020;-41
2023/10/19 06:35:33;;;;;;;11.35;7.93;;;;;;;18.34;49.96;99842.28;5052118;28;20090;-45
2023/10/19 06:37:59;;;;;;;;;;;;;;;19.12;47.70;99846.56;5052057;28;20045;-44
2023/10/19 06:40:26;;;;;;;13.23;8.38;;;;;;;18.49;49.27;99844.31;5051901;28;19917;-42
2023/10/19 06:42:55;;;;;;;14.32;8.88;;;;;;;19.16;47.98;99844.16;5051909;28;20052;-41
2023/10/19 06:45:21;;;;;;;15.63;9.45;;;;;;;19.11;47.35;99845.75;5051186;28;20029;-42
2023/10/19 06:47:49;;;;;;;18.00;10.00;;;;;;;18.75;47.26;99841.88;5051747;28;20112;-45
2023/10/19 06:50:17;;;;;;;23.35;10.32;;;;;;;18.47;48.26;99848.34;5051436;28;20556;-43
2023/10/19 06:52:44;;;;;;;18.02;10.00;;;;;;;18.14;49.19;99848.25;5051346;28;20104;-45
2023/10/19 06:55:14;;;;;;;17.83;9.65;;;;;;;18.86;48.59;99851.72;5051894;28;20028;-41
2023/10/19 06:57:43;;;;;;;13.98;9.43;;;;;;;19.43;47.71;99844.09;5051877;28;20029;-41
2023/10/19 07:00:19;;;;;;;13.45;9.52;;;;;;;20.01;45.71;99841.47;5051546;28;20033;-42
2023/10/19 07:02:46;;;;;;;10.65;8.15;;;;;;;20.37;44.73;99838.91;5051541;28;20040;-42
2023/10/19 07:05:11;;;;;;;14.05;8.55;;;;;;;20.64;44.40;99850.34;5051571;28;20032;-43
2023/10/19 07:07:39;;;;;;;11.75;8.27;;;;;;;20.75;43.76;99848.47;5051553;28;20013;-43
2023/10/19 07:10:08;;;;;;;13.68;8.68;;;;;;;20.63;43.37;99856.84;5051785;28;20040;-42
2023/10/19 07:12:34;;;;;;;9.55;7.45;;;;;;;21.23;42.13;99853.66;5052586;28;20196;-46
2023/10/19 07:15:00;;;;;;;12.30;7.97;;;;;;;21.54;42.48;99849.03;5052044;28;20103;-43
2023/10/19 07:17:27;;;;;;;10.93;7.60;;;;;;;21.74;41.02;99841.94;5052001;28;20028;-41
2023/10/19 07:19:53;;;;;;;15.70;8.25;;;;;;;21.64;41.39;99843.59;5051705;28;20052;-44
2023/10/19 07:22:22;;;;;;;14.13;8.35;;;;;;;21.67;41.50;99839.53;5051344;28;20393;-44
2023/10/19 07:24:47;;;;;;;;;;;;;;;21.78;40.98;99843.84;5051984;28;20054;-43
2023/10/19 07:27:18;;;;;;;11.00;8.38;;;;;;;21.02;42.51;99839.31;5051334;28;20369;-45
2023/10/19 07:29:44;;;;;;;13.07;8.60;;;;;;;21.02;42.81;99844.72;5051069;28;20060;-42
2023/10/19 07:32:13;;;;;;;14.00;8.20;;;;;;;21.41;42.32;99833.34;5048665;28;20390;-42
2023/10/19 07:34:38;;;;;;;15.60;9.50;;;;;;;21.96;41.29;99828.88;5047008;28;20033;-47
2023/10/19 07:37:04;;;;;;;13.60;8.77;;;;;;;22.35;40.81;99827.38;5047385;28;20052;-44
2023/10/19 07:39:30;;;;;;;15.40;11.85;;;;;;;22.87;38.64;99823.25;5047178;28;20059;-43
2023/10/19 07:41:56;;;;;;;15.15;11.40;;;;;;;22.68;39.70;99814.16;5050842;28;20029;-41
2023/10/19 07:44:22;;;;;;;13.20;8.98;;;;;;;23.10;39.11;99823.63;5051422;28;20033;-40
2023/10/19 07:46:49;;;;;;;12.55;8.82;;;;;;;23.38;39.04;99830.97;5048578;28;20030;-41
2023/10/19 07:49:14;;;;;;;10.35;8.50;;;;;;;22.59;39.75;99822.88;5050365;28;20025;-42
2023/10/19 07:51:45;;;;;;;14.07;7.80;;;;;;;22.97;39.37;99831.28;5049272;28;20032;-42
2023/10/19 07:54:12;;;;;;;14.98;9.07;;;;;;;22.45;39.84;99825.41;5048411;28;20485;-43
2023/10/19 07:56:37;;;;;;;19.50;9.80;;;;;;;22.50;39.24;99818.34;5046738;28;20032;-42
2023/10/19 07:59:03;;;;;;;12.10;8.43;;;;;;;22.85;38.15;99811.88;5050554;28;20098;-42
2023/10/19 08:01:28;;;;;;;11.60;9.20;;;;;;;22.64;38.36;99813.91;5046275;28;20033;-46
2023/10/19 08:03:54;;;;;;;11.38;8.70;;;;;;;22.83;38.35;99812.16;5050168;28;20032;-43
2023/10/19 08:06:20;;;;;;;11.63;9.38;;;;;;;23.02;37.47;99808.75;5050323;28;20049;-41
2023/10/19 08:08:46;;;;;;;15.20;8.98;;;;;;;23.05;38.21;99812.81;5049744;28;20059;-42
2023/10/19 08:11:12;;;;;;;17.27;9.15;;;;;;;22.77;38.44;99818.72;5050336;28;20082;-43
2023/10/19 08:13:39;;;;;;;13.77;9.20;;;;;;;22.74;38.60;99818.47;5050039;28;20500;-44
2023/10/19 08:16:07;;;;;;;13.98;9.13;;;;;;;22.48;39.29;99812.38;5050104;28;20029;-41
2023/10/19 08:18:35;;;;;;;13.27;8.98;;;;;;;22.42;39.31;99811.63;5049243;28;20041;-42
2023/10/19 08:21:03;;;;;;;12.68;9.10;;;;;;;22.35;39.62;99811.09;5048347;28;20045;-44
2023/10/19 08:23:31;;;;;;;15.17;10.07;;;;;;;22.36;39.47;99810.84;5045833;28;20025;-42
2023/10/19 08:25:57;;;;;;;10.75;8.77;;;;;;;22.42;40.54;99800.78;5050121;28;20376;-41
2023/10/19 08:28:23;;;;;;;12.85;9.40;;;;;;;22.37;40.01;99807.03;5050509;28;20091;-44
2023/10/19 08:31:00;;;;;;;13.68;9.40;;;;;;;22.18;41.07;99801.44;5047552;28;20457;-44
2023/10/19 08:33:26;;;;;;;16.25;10.20;;;;;;;21.80;41.47;99787.50;5050148;28;20086;-43
2023/10/19 08:35:53;;;;;;;16.65;10.63;;;;;;;21.67;41.57;99799.72;5050562;28;20021;-42
2023/10/19 08:38:19;;;;;;;16.92;9.77;;;;;;;21.95;41.17;99786.63;5050417;28;20107;-41
2023/10/19 08:40:45;;;;;;;19.92;10.13;;;;;;;21.33;42.99;99794.09;5050957;28;20033;-46
2023/10/19 08:43:13;;;;;;;13.23;9.23;;;;;;;21.29;43.31;99798.44;5051040;28;20025;-45
2023/10/19 08:45:39;;;;;;;12.20;9.30;;;;;;;22.11;41.43;99791.97;5041217;28;20029;-43
2023/10/19 08:48:05;;;;;;;15.75;9.00;;;;;;;22.27;40.69;99792.72;5050268;28;20017;-44
2023/10/19 08:50:32;;;;;;;14.23;9.40;;;;;;;22.29;40.40;99791.34;5048636;28;20165;-44
2023/10/19 08:52:59;;;;;;;13.43;9.88;;;;;;;21.48;42.25;99791.38;5045166;28;20090;-44
2023/10/19 08:55:25;;;;;;;11.70;9.55;;;;;;;20.93;43.39;99793.06;5046232;28;20052;-41
2023/10/19 08:57:51;;;;;;;13.57;10.20;;;;;;;21.29;43.74;99798.44;5050674;28;20036;-42
2023/10/19 09:00:19;;;;;;;12.35;9.88;;;;;;;22.37;41.83;99785.34;5048897;28;20037;-45
2023/10/19 09:02:47;;;;;;;14.10;9.55;;;;;;;23.14;40.50;99784.78;5050664;28;20477;-43
2023/10/19 09:05:30;;;;;;;13.73;9.60;;;;;;;22.85;40.71;99771.19;5050106;28;20117;-41
2023/10/19 09:07:55;;;;;;;12.68;9.02;;;;;;;23.16;40.48;99757.34;5050647;28;20099;-42
2023/10/19 09:10:31;;;;;;;14.02;9.82;;;;;;;23.15;39.42;99759.25;5052413;28;20128;-43
2023/10/19 09:13:07;;;;;;;12.60;9.20;;;;;;;23.29;38.53;99762.09;5052561;28;20421;-43
2023/10/19 09:15:33;;;;;;;12.50;9.15;;;;;;;23.38;38.74;99748.69;5053301;28;20228;-45
2023/10/19 09:18:15;;;;;;;13.20;9.52;;;;;;;23.37;39.17;99756.03;5052948;28;20113;-43
2023/10/19 09:20:42;;;;;;;14.25;9.45;;;;;;;23.56;38.36;99755.28;5053142;28;20410;-42
2023/10/19 09:23:08;;;;;;;10.48;8.10;;;;;;;23.82;38.50;99753.13;5053193;28;20071;-43
2023/10/19 09:25:35;;;;;;;12.07;9.65;;;;;;;23.46;38.51;99744.56;5053575;28;20021;-42
2023/10/19 09:28:02;;;;;;;9.82;8.23;;;;;;;23.65;37.35;99737.25;5053782;28;20090;-45
2023/10/19 09:30:30;;;;;;;9.45;7.68;;;;;;;23.33;38.37;99737.91;5053206;28;20036;-44
2023/10/19 09:32:57;;;;;;;9.80;8.10;;;;;;;23.15;38.02;99729.41;5053403;28;20036;-42
2023/10/19 09:35:27;;;;;;;10.35;7.80;;;;;;;23.14;37.76;99726.97;5053312;28;20080;-42
2023/10/19 09:37:54;;;;;;;11.35;8.35;;;;;;;22.56;39.76;99716.88;5053527;28;20057;-43
2023/10/19 09:40:20;;;;;;;9.43;7.90;;;;;;;22.50;39.64;99726.16;5053355;28;20033;-42
2023/10/19 09:42:52;;;;;;;10.85;8.10;;;;;;;22.39;39.87;99725.41;5053112;28;20477;-44
2023/10/19 09:45:19;;;;;;;9.43;8.43;;;;;;;21.26;42.16;99721.31;5052909;28;20056;-43
2023/10/19 09:47:50;;;;;;;9.98;7.95;;;;;;;21.04;42.77;99726.25;5052898;28;20063;-43
2023/10/19 09:50:16;;;;;;;11.40;7.80;;;;;;;21.69;41.41;99704.69;5052606;28;20144;-43
2023/10/19 09:52:42;;;;;;;11.52;7.97;;;;;;;21.89;41.51;99706.47;5052890;28;20027;-45
2023/10/19 09:55:25;;;;;;;11.30;7.80;;;;;;;22.12;40.87;99702.25;5052881;28;20087;-43
2023/10/19 09:57:58;;;;;;;8.55;7.20;;;;;;;22.38;40.84;99705.63;5052946;28;20024;-42
2023/10/19 10:00:24;;;;;;;12.10;8.88;;;;;;;22.40;40.33;99706.16;5052786;28;20059;-42
2023/10/19 10:02:51;;;;;;;12.30;8.70;;;;;;;21.92;41.43;99694.28;5053035;28;20105;-43
2023/10/19 10:05:44;;;;;;;11.90;8.35;;;;;;;22.11;41.10;99692.53;5052421;28;20021;-41
2023/10/19 10:08:18;;;;;;;12.02;8.85;;;;;;;21.84;41.29;99696.47;5052224;28;20076;-44
2023/10/19 10:10:46;;;;;;;12.25;7.30;;;;;;;21.58;41.92;99693.06;5052344;28;20032;-45
2023/10/19 10:13:23;;;;;;;8.60;7.20;;;;;;;22.06;40.91;99693.34;5052485;28;20024;-43
2023/10/19 10:15:51;;;;;;;9.75;8.13;;;;;;;21.72;41.06;99684.34;5052243;28;20032;-43
2023/10/19 10:18:17;;;;;;;10.23;7.70;;;;;;;21.16;42.62;99680.75;5052395;28;20033;-44
2023/10/19 10:20:43;;;;;;;11.68;7.38;;;;;;;21.29;42.05;99673.97;5051763;28;20082;-44
2023/10/19 10:23:31;;;;;;;10.57;8.00;;;;;;;20.73;42.92;99687.59;5051978;28;20021;-44
2023/10/19 10:25:58;;;;;;;10.55;8.70;;;;;;;21.24;42.86;99684.78;5051740;28;20017;-43
2023/10/19 10:28:24;;;;;;;11.13;7.45;;;;;;;22.00;40.86;99688.25;5052218;28;20663;-43
2023/10/19 10:31:07;;;;;;;9.40;7.13;;;;;;;22.46;39.89;99687.94;5052028;28;20021;-42
2023/10/19 10:33:47;;;;;;;10.82;7.50;;;;;;;22.37;39.93;99684.22;5051937;28;20028;-41
2023/10/19 10:36:14;;;;;;;11.48;8.30;;;;;;;22.89;39.62;99679.19;5052387;28;20025;-43
2023/10/19 10:38:40;;;;;;;11.57;8.93;;;;;;;23.03;40.01;99672.78;5051673;28;20140;-41
2023/10/19 10:41:09;;;;;;;9.77;8.57;;;;;;;23.23;39.07;99665.53;5052109;28;20120;-41
2023/10/19 10:43:52;;;;;;;10.88;7.60;;;;;;;23.43;38.79;99662.56;5051721;28;20498;-43
2023/10/19 10:46:19;;;;;;;12.60;7.60;;;;;;;23.07;38.19;99662.19;5051715;28;20058;-45
2023/10/19 10:48:44;;;;;;;9.45;7.70;;;;;;;22.38;39.53;99661.47;5052223;28;20025;-44
2023/10/19 10:51:20;;;;;;;12.60;9.27;;;;;;;22.29;40.00;99652.31;5052027;28;20033;-41
2023/10/19 10:53:53;;;;;;;12.25;9.18;;;;;;;22.22;39.91;99652.63;5051712;28;20037;-43
2023/10/19 10:56:20;;;;;;;12.77;8.68;;;;;;;22.60;39.71;99648.25;5051875;28;20037;-42
2023/10/19 10:58:46;;;;;;;13.63;9.50;;;;;;;22.93;39.62;99634.91;5051708;28;20086;-43
2023/10/19 11:01:13;;;;;;;11.02;8.48;;;;;;;23.55;38.93;99640.44;5052033;28;20040;-41
2023/10/19 11:03:39;;;;;;;10.50;9.15;;;;;;;23.65;38.44;99633.25;5051890;28;20397;-44
2023/10/19 11:06:07;;;;;;;12.77;10.75;;;;;;;23.96;38.06;99639.06;5052020;28;20397;-42
2023/10/19 11:08:33;;;;;;;12.73;10.98;;;;;;;24.63;37.08;99638.81;5051661;28;20036;-42
2023/10/19 11:11:05;;;;;;;11.73;9.35;;;;;;;25.07;35.98;99623.00;5051306;28;20402;-43
2023/10/19 11:13:33;;;;;;;11.68;9.27;;;;;;;25.28;35.04;99623.44;5051354;28;20544;-41
2023/10/19 11:16:00;;;;;;;12.25;9.38;;;;;;;24.24;36.60;99617.41;5051324;28;20079;-41
2023/10/19 11:18:40;;;;;;;11.25;9.25;;;;;;;24.72;37.32;99619.88;5051739;28;20086;-43
2023/10/19 11:21:14;;;;;;;13.20;9.52;;;;;;;25.26;36.11;99599.22;5051816;28;20024;-42
2023/10/19 11:23:47;;;;;;;11.13;9.05;;;;;;;25.75;35.06;99588.63;5051327;28;20500;-42
2023/10/19 11:26:16;;;;;;;10.88;8.30;;;;;;;26.05;34.54;99594.50;5051815;28;20104;-44
2023/10/19 11:29:00;;;;;;;11.10;9.80;;;;;;;25.89;35.02;99581.22;5051456;28;20579;-42
2023/10/19 11:31:27;;;;;;;17.73;11.38;;;;;;;26.02;34.30;99576.81;5050884;28;20586;-43
2023/10/19 11:33:55;;;;;;;11.13;9.35;;;;;;;25.50;34.66;99576.41;5051189;28;20028;-44
2023/10/19 11:36:22;;;;;;;11.77;7.60;;;;;;;25.46;34.44;99575.41;5050953;28;20093;-44
2023/10/19 11:38:49;;;;;;;10.93;9.05;;;;;;;25.05;35.15;99563.44;5051356;28;20057;-43
2023/10/19 11:41:16;;;;;;;10.85;8.57;;;;;;;24.61;36.23;99566.78;5051218;28;20040;-44
2023/10/19 11:43:42;;;;;;;12.82;9.55;;;;;;;24.82;35.92;99561.75;5051172;28;20074;-43
2023/10/19 11:46:09;;;;;;;16.65;9.38;;;;;;;24.27;37.47;99560.53;5051374;28;20020;-44
2023/10/19 11:48:36;;;;;;;13.27;7.90;;;;;;;24.56;36.52;99533.13;5050909;28;20028;-46